sensor_id;sensor_type;location;lat;lon;timestamp;P1;durP1;ratioP1;P2;durP2;ratioP2
54368;SDS011;40266;52.434;17.056;2023-05-23T00:00:04;24.50;;;7.60;;
54368;SDS011;40266;52.434;17.056;2023-05-23T00:03:13;19.10;;;7.70;;
54368;SDS011;40266;52.434;17.056;2023-05-23T00:05:58;21.10;;;7.50;;
54368;SDS011;40266;52.434;17.056;2023-05-23T00:08:41;17.70;;;8.00;;
54368;SDS011;40266;52.434;17.056;2023-05-23T00:11:24;15.20;;;7.20;;
54368;SDS011;40266;52.434;17.056;2023-05-23T00:14:08;21.90;;;7.40;;
54368;SDS011;40266;52.434;17.056;2023-05-23T00:16:51;23.80;;;7.60;;
54368;SDS011;40266;52.434;17.056;2023-05-23T00:19:34;32.40;;;7.70;;
54368;SDS011;40266;52.434;17.056;2023-05-23T00:22:18;25.70;;;8.50;;
54368;SDS011;40266;52.434;17.056;2023-05-23T00:25:01;20.70;;;9.20;;
54368;SDS011;40266;52.434;17.056;2023-05-23T00:27:44;18.70;;;8.10;;
54368;SDS011;40266;52.434;17.056;2023-05-23T00:30:28;17.90;;;8.30;;
54368;SDS011;40266;52.434;17.056;2023-05-23T00:33:12;22.50;;;9.20;;
54368;SDS011;40266;52.434;17.056;2023-05-23T00:35:56;16.50;;;8.10;;
54368;SDS011;40266;52.434;17.056;2023-05-23T00:38:39;17.80;;;7.60;;
54368;SDS011;40266;52.434;17.056;2023-05-23T00:41:22;20.80;;;7.90;;
54368;SDS011;40266;52.434;17.056;2023-05-23T00:44:08;20.50;;;8.40;;
54368;SDS011;40266;52.434;17.056;2023-05-23T00:46:54;15.60;;;7.30;;
54368;SDS011;40266;52.434;17.056;2023-05-23T00:49:39;18.30;;;8.70;;
54368;SDS011;40266;52.434;17.056;2023-05-23T00:52:22;18.20;;;8.80;;
54368;SDS011;40266;52.434;17.056;2023-05-23T00:55:06;13.40;;;6.90;;
54368;SDS011;40266;52.434;17.056;2023-05-23T00:57:50;22.50;;;8.60;;
54368;SDS011;40266;52.434;17.056;2023-05-23T01:00:37;16.90;;;7.90;;
54368;SDS011;40266;52.434;17.056;2023-05-23T01:03:38;26.50;;;8.50;;
54368;SDS011;40266;52.434;17.056;2023-05-23T01:06:23;17.80;;;8.40;;
54368;SDS011;40266;52.434;17.056;2023-05-23T01:09:07;20.30;;;8.80;;
54368;SDS011;40266;52.434;17.056;2023-05-23T01:12:03;14.50;;;8.00;;
54368;SDS011;40266;52.434;17.056;2023-05-23T01:14:53;12.90;;;7.30;;
54368;SDS011;40266;52.434;17.056;2023-05-23T01:17:57;18.00;;;7.90;;
54368;SDS011;40266;52.434;17.056;2023-05-23T01:20:54;17.50;;;8.60;;
54368;SDS011;40266;52.434;17.056;2023-05-23T01:27:00;15.00;;;7.50;;
54368;SDS011;40266;52.434;17.056;2023-05-23T01:30:04;16.50;;;8.80;;
54368;SDS011;40266;52.434;17.056;2023-05-23T01:32:52;16.30;;;8.30;;
54368;SDS011;40266;52.434;17.056;2023-05-23T01:35:37;19.60;;;8.80;;
54368;SDS011;40266;52.434;17.056;2023-05-23T01:38:22;24.90;;;8.60;;
54368;SDS011;40266;52.434;17.056;2023-05-23T01:41:05;24.90;;;8.30;;
54368;SDS011;40266;52.434;17.056;2023-05-23T01:43:49;29.50;;;8.90;;
54368;SDS011;40266;52.434;17.056;2023-05-23T01:46:32;40.30;;;11.30;;
54368;SDS011;40266;52.434;17.056;2023-05-23T01:49:17;33.90;;;11.60;;
54368;SDS011;40266;52.434;17.056;2023-05-23T01:52:04;40.10;;;10.90;;
54368;SDS011;40266;52.434;17.056;2023-05-23T01:54:52;26.90;;;10.00;;
54368;SDS011;40266;52.434;17.056;2023-05-23T01:57:39;27.00;;;9.90;;
54368;SDS011;40266;52.434;17.056;2023-05-23T02:00:22;26.50;;;9.20;;
54368;SDS011;40266;52.434;17.056;2023-05-23T02:03:06;26.90;;;8.70;;
54368;SDS011;40266;52.434;17.056;2023-05-23T02:05:50;20.20;;;8.40;;
54368;SDS011;40266;52.434;17.056;2023-05-23T02:08:33;20.60;;;9.30;;
54368;SDS011;40266;52.434;17.056;2023-05-23T02:11:17;19.40;;;8.80;;
54368;SDS011;40266;52.434;17.056;2023-05-23T02:14:01;15.40;;;8.30;;
54368;SDS011;40266;52.434;17.056;2023-05-23T02:16:45;18.70;;;8.70;;
54368;SDS011;40266;52.434;17.056;2023-05-23T02:19:29;16.90;;;8.80;;
54368;SDS011;40266;52.434;17.056;2023-05-23T02:22:13;17.10;;;8.70;;
54368;SDS011;40266;52.434;17.056;2023-05-23T02:24:56;19.30;;;8.60;;
54368;SDS011;40266;52.434;17.056;2023-05-23T02:27:39;19.10;;;8.10;;
54368;SDS011;40266;52.434;17.056;2023-05-23T02:30:22;18.70;;;8.40;;
54368;SDS011;40266;52.434;17.056;2023-05-23T02:33:05;14.60;;;7.70;;
54368;SDS011;40266;52.434;17.056;2023-05-23T02:35:50;17.80;;;8.50;;
54368;SDS011;40266;52.434;17.056;2023-05-23T02:38:33;14.80;;;8.30;;
54368;SDS011;40266;52.434;17.056;2023-05-23T02:41:16;18.40;;;8.50;;
54368;SDS011;40266;52.434;17.056;2023-05-23T02:44:01;26.40;;;9.20;;
54368;SDS011;40266;52.434;17.056;2023-05-23T02:46:46;17.80;;;8.70;;
54368;SDS011;40266;52.434;17.056;2023-05-23T02:49:29;12.30;;;7.80;;
54368;SDS011;40266;52.434;17.056;2023-05-23T02:52:13;17.90;;;8.40;;
54368;SDS011;40266;52.434;17.056;2023-05-23T02:54:58;19.10;;;9.00;;
54368;SDS011;40266;52.434;17.056;2023-05-23T02:57:41;19.30;;;8.40;;
54368;SDS011;40266;52.434;17.056;2023-05-23T03:00:26;17.60;;;9.00;;
54368;SDS011;40266;52.434;17.056;2023-05-23T03:03:11;17.70;;;8.90;;
54368;SDS011;40266;52.434;17.056;2023-05-23T03:05:54;12.90;;;8.10;;
54368;SDS011;40266;52.434;17.056;2023-05-23T03:08:38;19.20;;;8.60;;
54368;SDS011;40266;52.434;17.056;2023-05-23T03:11:21;13.80;;;8.10;;
54368;SDS011;40266;52.434;17.056;2023-05-23T03:14:05;18.70;;;8.40;;
54368;SDS011;40266;52.434;17.056;2023-05-23T03:16:49;18.20;;;8.20;;
54368;SDS011;40266;52.434;17.056;2023-05-23T03:19:32;14.70;;;8.00;;
54368;SDS011;40266;52.434;17.056;2023-05-23T03:22:18;19.10;;;7.90;;
54368;SDS011;40266;52.434;17.056;2023-05-23T03:25:02;15.40;;;8.10;;
54368;SDS011;40266;52.434;17.056;2023-05-23T03:27:45;14.90;;;8.80;;
54368;SDS011;40266;52.434;17.056;2023-05-23T03:30:29;17.00;;;8.90;;
54368;SDS011;40266;52.434;17.056;2023-05-23T03:33:13;15.70;;;8.80;;
54368;SDS011;40266;52.434;17.056;2023-05-23T03:35:56;17.70;;;8.40;;
54368;SDS011;40266;52.434;17.056;2023-05-23T03:38:40;16.50;;;8.20;;
54368;SDS011;40266;52.434;17.056;2023-05-23T03:41:24;18.50;;;8.50;;
54368;SDS011;40266;52.434;17.056;2023-05-23T03:44:09;18.50;;;8.80;;
54368;SDS011;40266;52.434;17.056;2023-05-23T03:46:52;18.70;;;8.70;;
54368;SDS011;40266;52.434;17.056;2023-05-23T03:49:36;16.70;;;8.10;;
54368;SDS011;40266;52.434;17.056;2023-05-23T03:52:20;18.10;;;8.50;;
54368;SDS011;40266;52.434;17.056;2023-05-23T03:55:05;25.20;;;7.80;;
54368;SDS011;40266;52.434;17.056;2023-05-23T03:57:51;20.50;;;8.80;;
54368;SDS011;40266;52.434;17.056;2023-05-23T04:00:35;27.60;;;9.60;;
54368;SDS011;40266;52.434;17.056;2023-05-23T04:03:22;24.10;;;9.50;;
54368;SDS011;40266;52.434;17.056;2023-05-23T04:06:05;18.40;;;8.70;;
54368;SDS011;40266;52.434;17.056;2023-05-23T04:08:52;21.70;;;8.80;;
54368;SDS011;40266;52.434;17.056;2023-05-23T04:11:35;22.60;;;9.20;;
54368;SDS011;40266;52.434;17.056;2023-05-23T04:14:20;21.50;;;9.30;;
54368;SDS011;40266;52.434;17.056;2023-05-23T04:17:05;19.70;;;8.60;;
54368;SDS011;40266;52.434;17.056;2023-05-23T04:19:51;17.60;;;8.40;;
54368;SDS011;40266;52.434;17.056;2023-05-23T04:22:34;25.90;;;8.80;;
54368;SDS011;40266;52.434;17.056;2023-05-23T04:25:19;16.80;;;9.20;;
54368;SDS011;40266;52.434;17.056;2023-05-23T04:28:28;16.40;;;9.50;;
54368;SDS011;40266;52.434;17.056;2023-05-23T04:31:12;13.50;;;8.20;;
54368;SDS011;40266;52.434;17.056;2023-05-23T04:33:57;17.30;;;8.70;;
54368;SDS011;40266;52.434;17.056;2023-05-23T04:36:40;17.70;;;8.50;;
54368;SDS011;40266;52.434;17.056;2023-05-23T04:39:27;23.40;;;9.10;;
54368;SDS011;40266;52.434;17.056;2023-05-23T04:42:31;17.50;;;8.50;;
54368;SDS011;40266;52.434;17.056;2023-05-23T04:45:27;15.90;;;8.50;;
54368;SDS011;40266;52.434;17.056;2023-05-23T04:48:18;16.10;;;9.10;;
54368;SDS011;40266;52.434;17.056;2023-05-23T04:51:04;18.30;;;8.10;;
54368;SDS011;40266;52.434;17.056;2023-05-23T04:53:54;20.20;;;8.60;;
54368;SDS011;40266;52.434;17.056;2023-05-23T04:56:39;18.70;;;8.70;;
54368;SDS011;40266;52.434;17.056;2023-05-23T04:59:24;18.90;;;8.90;;
54368;SDS011;40266;52.434;17.056;2023-05-23T05:02:08;16.10;;;8.50;;
54368;SDS011;40266;52.434;17.056;2023-05-23T05:04:53;27.90;;;9.20;;
54368;SDS011;40266;52.434;17.056;2023-05-23T05:07:37;27.20;;;9.00;;
54368;SDS011;40266;52.434;17.056;2023-05-23T05:10:23;21.20;;;8.10;;
54368;SDS011;40266;52.434;17.056;2023-05-23T05:13:06;20.70;;;8.20;;
54368;SDS011;40266;52.434;17.056;2023-05-23T05:15:57;20.60;;;8.70;;
54368;SDS011;40266;52.434;17.056;2023-05-23T05:18:42;20.40;;;8.80;;
54368;SDS011;40266;52.434;17.056;2023-05-23T05:21:26;14.00;;;7.70;;
54368;SDS011;40266;52.434;17.056;2023-05-23T05:24:11;23.20;;;9.00;;
54368;SDS011;40266;52.434;17.056;2023-05-23T05:26:54;20.90;;;7.90;;
54368;SDS011;40266;52.434;17.056;2023-05-23T05:29:39;21.50;;;8.60;;
54368;SDS011;40266;52.434;17.056;2023-05-23T05:32:23;18.80;;;8.30;;
54368;SDS011;40266;52.434;17.056;2023-05-23T05:35:07;15.10;;;7.20;;
54368;SDS011;40266;52.434;17.056;2023-05-23T05:37:51;14.00;;;7.40;;
54368;SDS011;40266;52.434;17.056;2023-05-23T05:40:34;15.90;;;6.90;;
54368;SDS011;40266;52.434;17.056;2023-05-23T05:43:18;17.70;;;7.60;;
54368;SDS011;40266;52.434;17.056;2023-05-23T05:46:02;18.30;;;8.50;;
54368;SDS011;40266;52.434;17.056;2023-05-23T05:48:46;25.10;;;9.00;;
54368;SDS011;40266;52.434;17.056;2023-05-23T05:51:31;13.70;;;7.40;;
54368;SDS011;40266;52.434;17.056;2023-05-23T05:54:15;27.50;;;8.50;;
54368;SDS011;40266;52.434;17.056;2023-05-23T05:57:01;16.80;;;7.10;;
54368;SDS011;40266;52.434;17.056;2023-05-23T05:59:44;24.60;;;7.50;;
54368;SDS011;40266;52.434;17.056;2023-05-23T06:02:28;23.00;;;6.70;;
54368;SDS011;40266;52.434;17.056;2023-05-23T06:05:15;23.00;;;6.80;;
54368;SDS011;40266;52.434;17.056;2023-05-23T06:08:04;13.90;;;5.80;;
54368;SDS011;40266;52.434;17.056;2023-05-23T06:10:48;12.30;;;5.80;;
54368;SDS011;40266;52.434;17.056;2023-05-23T06:13:34;16.00;;;6.80;;
54368;SDS011;40266;52.434;17.056;2023-05-23T06:16:21;15.60;;;5.90;;
54368;SDS011;40266;52.434;17.056;2023-05-23T06:19:05;14.30;;;6.20;;
54368;SDS011;40266;52.434;17.056;2023-05-23T06:21:50;20.90;;;5.80;;
54368;SDS011;40266;52.434;17.056;2023-05-23T06:24:37;14.20;;;6.80;;
54368;SDS011;40266;52.434;17.056;2023-05-23T06:27:20;11.40;;;6.10;;
54368;SDS011;40266;52.434;17.056;2023-05-23T06:30:03;17.70;;;6.40;;
54368;SDS011;40266;52.434;17.056;2023-05-23T06:32:47;22.40;;;7.10;;
54368;SDS011;40266;52.434;17.056;2023-05-23T06:35:30;13.60;;;6.20;;
54368;SDS011;40266;52.434;17.056;2023-05-23T06:38:16;15.80;;;6.10;;
54368;SDS011;40266;52.434;17.056;2023-05-23T06:40:59;17.60;;;6.30;;
54368;SDS011;40266;52.434;17.056;2023-05-23T06:43:44;17.80;;;6.10;;
54368;SDS011;40266;52.434;17.056;2023-05-23T06:46:30;18.60;;;6.30;;
54368;SDS011;40266;52.434;17.056;2023-05-23T06:49:14;12.90;;;5.80;;
54368;SDS011;40266;52.434;17.056;2023-05-23T06:51:59;11.40;;;6.20;;
54368;SDS011;40266;52.434;17.056;2023-05-23T06:54:43;10.50;;;5.50;;
54368;SDS011;40266;52.434;17.056;2023-05-23T06:57:27;14.90;;;6.50;;
54368;SDS011;40266;52.434;17.056;2023-05-23T07:00:10;23.60;;;6.30;;
54368;SDS011;40266;52.434;17.056;2023-05-23T07:03:05;19.10;;;7.00;;
54368;SDS011;40266;52.434;17.056;2023-05-23T07:05:50;19.60;;;6.80;;
54368;SDS011;40266;52.434;17.056;2023-05-23T07:08:34;19.60;;;6.80;;
54368;SDS011;40266;52.434;17.056;2023-05-23T07:11:20;14.10;;;6.30;;
54368;SDS011;40266;52.434;17.056;2023-05-23T07:14:10;19.30;;;6.60;;
54368;SDS011;40266;52.434;17.056;2023-05-23T07:16:56;11.30;;;6.00;;
54368;SDS011;40266;52.434;17.056;2023-05-23T07:19:39;17.80;;;6.40;;
54368;SDS011;40266;52.434;17.056;2023-05-23T07:22:22;11.50;;;5.30;;
54368;SDS011;40266;52.434;17.056;2023-05-23T07:25:07;15.00;;;6.00;;
54368;SDS011;40266;52.434;17.056;2023-05-23T07:27:51;9.70;;;5.70;;
54368;SDS011;40266;52.434;17.056;2023-05-23T07:30:38;13.60;;;6.10;;
54368;SDS011;40266;52.434;17.056;2023-05-23T07:33:24;18.90;;;5.90;;
54368;SDS011;40266;52.434;17.056;2023-05-23T07:36:11;27.10;;;7.00;;
54368;SDS011;40266;52.434;17.056;2023-05-23T07:38:55;9.70;;;5.20;;
54368;SDS011;40266;52.434;17.056;2023-05-23T07:58:17;18.00;;;6.20;;
54368;SDS011;40266;52.434;17.056;2023-05-23T08:05:58;16.50;;;5.90;;
54368;SDS011;40266;52.434;17.056;2023-05-23T08:09:24;13.50;;;6.30;;
54368;SDS011;40266;52.434;17.056;2023-05-23T08:13:10;13.40;;;5.30;;
54368;SDS011;40266;52.434;17.056;2023-05-23T08:29:04;11.70;;;4.80;;
54368;SDS011;40266;52.434;17.056;2023-05-23T09:05:12;11.90;;;4.30;;
54368;SDS011;40266;52.434;17.056;2023-05-23T09:13:22;5.70;;;3.50;;
54368;SDS011;40266;52.434;17.056;2023-05-23T09:37:19;8.70;;;4.00;;
54368;SDS011;40266;52.434;17.056;2023-05-23T10:21:34;8.40;;;3.80;;
54368;SDS011;40266;52.434;17.056;2023-05-23T10:45:54;11.40;;;4.60;;
54368;SDS011;40266;52.434;17.056;2023-05-23T12:16:05;9.80;;;4.70;;
54368;SDS011;40266;52.434;17.056;2023-05-23T13:08:55;14.10;;;7.10;;
54368;SDS011;40266;52.434;17.056;2023-05-23T17:27:16;13.60;;;9.10;;
